Flight Track Log - Related Links

Times and Time Zones

All times are in EST time to prevent confusion due to time zone crossing. See the JBU1295 flight status page for this flight to view local times or setup timezone preferences in your user account.

Time Position Orientation Groundspeed Altitude Reporting Facility
EST Latitude Longitude Course Direction KTS MPH feet Rate Location/Type
Wed 09:27:56 PM 40.6500 -73.7333 270° West 185 213 2,200  Level New York TRACON
Wed 09:28:50 PM 40.6333 -73.6667 108° East 260 299 4,400 3,000 Climbing New York TRACON
Wed 09:29:50 PM 40.5667 -73.7167 210° Southwest 273 314 7,900 3,100 Climbing New York TRACON
Wed 09:30:00 PM 40.3606 -74.2101 232° Southwest  Level FlightAware Approximate
Wed 09:30:50 PM 40.5333 -73.7833 237° Southwest 243 280 10,600  Level New York TRACON
Wed 09:31:00 PM 40.2928 -74.3232 232° Southwest  Level FlightAware Approximate
Wed 09:31:50 PM 40.5000 -73.8667 242° Southwest 285 328 12,700  Level New York TRACON
Wed 09:32:00 PM 40.2262 -74.4317 226° Southwest  Level FlightAware Approximate
Wed 09:32:44 PM 40.4500 -73.9500 232° Southwest 295 339 14,800  Level New York TRACON
Wed 09:33:00 PM 40.6017 -73.9104 270° West  Level Estimated
Wed 09:35:14 PM 40.3386 -74.2072 240° Southwest 329 379 17,000  Level New York Center
Wed 09:36:14 PM 40.3144 -74.3178 254° West 329 379 18,100 1,300 Climbing New York Center
Wed 09:37:14 PM 40.3008 -74.4286 261° West 329 379 19,600 1,600 Climbing New York Center
Wed 09:38:14 PM 40.2844 -74.5475 260° West 335 386 21,300 1,500 Climbing New York Center
Wed 09:39:14 PM 40.2700 -74.6717 261° West 340 391 22,600 1,350 Climbing New York Center
Wed 09:40:14 PM 40.2553 -74.8014 262° West 355 409 24,000 1,300 Climbing New York Center
Wed 09:41:14 PM 40.2381 -74.9336 260° West 361 415 25,200 1,200 Climbing New York Center
Wed 09:42:14 PM 40.2231 -75.0633 261° West 367 422 26,400 1,050 Climbing New York Center
Wed 09:43:14 PM 40.2056 -75.1953 260° West 372 428 27,300 900 Climbing New York Center
Wed 09:44:14 PM 40.1900 -75.3331 262° West 372 428 28,200 850 Climbing New York Center
Wed 09:45:14 PM 40.1700 -75.4703 259° West 378 435 29,000 950 Climbing New York Center
Wed 09:46:14 PM 40.1539 -75.6103 261° West 390 449 30,100 1,150 Climbing New York Center
Wed 09:47:14 PM 40.1336 -75.7447 259° West 385 443 31,300 1,100 Climbing New York Center
Wed 09:48:14 PM 40.1178 -75.8767 261° West 385 443 32,300 1,000 Climbing New York Center
Wed 09:49:14 PM 40.0992 -76.0111 260° West 385 443 33,300 843 Climbing New York Center
Wed 09:50:15 PM 40.0747 -76.1394 256° West 379 436 34,000 350 Climbing New York Center
Wed 09:51:14 PM 40.0247 -76.2711 244° Southwest 375 432 34,000  Level New York Center
Wed 09:52:14 PM 39.9858 -76.3928 247° West 375 432 34,000  Level New York Center
Wed 09:53:14 PM 39.9444 -76.5167 246° West 375 432 34,000  Level New York Center
Wed 09:54:14 PM 39.9050 -76.6378 247° West 370 426 34,000  Level New York Center
Wed 09:55:25 PM 39.8622 -76.7647 246° West 370 426 34,000  Level Washington Center
Wed 09:56:23 PM 39.8214 -76.8856 246° West 370 426 34,000  Level Washington Center
Wed 09:57:23 PM 39.7803 -77.0089 247° West 375 432 34,000  Level Washington Center
Wed 09:58:25 PM 39.7392 -77.1297 246° West 375 432 34,000  Level Washington Center
Wed 09:59:25 PM 39.6981 -77.2528 247° West 375 432 34,000  Level Washington Center
Wed 10:00:23 PM 39.6589 -77.3706 247° West 375 432 34,000 151 Level Washington Center
Wed 10:01:24 PM 39.6175 -77.4933 246° West 375 432 34,300 443 Climbing Washington Center
Wed 10:02:25 PM 39.5758 -77.6161 246° West 375 432 34,900 706 Climbing Washington Center
Wed 10:03:23 PM 39.5364 -77.7333 246° West 370 426 35,700 550 Climbing Washington Center
Wed 10:04:25 PM 39.5008 -77.8561 249° West 370 426 36,000 150 Climbing Washington Center
Wed 10:05:23 PM 39.4669 -77.9814 251° West 370 426 36,000  Level Washington Center
Wed 10:06:23 PM 39.4333 -78.1011 250° West 365 420 36,000  Level Washington Center
Wed 10:07:24 PM 39.4036 -78.2292 253° West 365 420 36,000  Level Washington Center
Wed 10:08:24 PM 39.3797 -78.3597 257° West 370 426 36,000  Level Washington Center
Wed 10:09:25 PM 39.3539 -78.4903 256° West 375 432 36,000  Level Washington Center
Wed 10:10:23 PM 39.3297 -78.6183 256° West 375 432 36,000  Level Washington Center
Wed 10:11:24 PM 39.3036 -78.7458 255° West 375 432 36,000  Level Washington Center
Wed 10:12:25 PM 39.2772 -78.8733 255° West 375 432 36,000  Level Washington Center
Wed 10:13:25 PM 39.2528 -79.0011 256° West 375 432 36,000  Level Washington Center
Wed 10:14:23 PM 39.2261 -79.1311 255° West 382 440 36,000  Level Washington Center
Wed 10:15:24 PM 39.2031 -79.2719 258° West 370 426 36,000  Level Washington Center
Wed 10:16:23 PM 39.1803 -79.4019 257° West 370 426 36,000  Level Washington Center
Wed 10:17:24 PM 39.1575 -79.5319 257° West 370 426 36,000  Level Washington Center
Wed 10:18:24 PM 39.1342 -79.6619 257° West 370 426 36,000  Level Washington Center
Wed 10:19:25 PM 39.1089 -79.7917 256° West 370 426 36,000  Level Washington Center
Wed 10:20:25 PM 39.0836 -79.9211 256° West 370 426 36,000  Level Washington Center
Wed 10:21:23 PM 39.0622 -80.0508 258° West 370 426 36,000  Level Washington Center
Wed 10:22:34 PM 39.0294 -80.1950 254° West 371 427 36,000  Level Indianapolis Center
Wed 10:23:35 PM 39.0050 -80.3228 256° West 371 427 36,000  Level Indianapolis Center
Wed 10:24:36 PM 38.9814 -80.4511 257° West 371 427 36,000  Level Indianapolis Center
Wed 10:25:37 PM 38.9561 -80.5781 256° West 370 426 36,000 -246 Level Indianapolis Center
Wed 10:26:38 PM 38.9328 -80.7047 257° West 369 425 35,500 -738 Descending Indianapolis Center
Wed 10:27:39 PM 38.9078 -80.8269 255° West 360 414 34,500 -738 Descending Indianapolis Center
Wed 10:28:40 PM 38.8836 -80.9556 256° West 363 418 34,000 -244 Descending Indianapolis Center
Wed 10:29:42 PM 38.8589 -81.0831 256° West 366 421 34,000  Level Indianapolis Center
Wed 10:30:43 PM 38.8294 -81.2328 256° West 366 421 34,000  Level Indianapolis Center
Wed 10:31:44 PM 38.8042 -81.3597 256° West 366 421 34,000  Level Indianapolis Center
Wed 10:32:45 PM 38.7814 -81.4778 256° West 366 421 34,000  Level Indianapolis Center
Wed 10:33:46 PM 38.7547 -81.6008 255° West 365 420 34,000  Level Indianapolis Center
Wed 10:34:48 PM 38.7308 -81.7278 256° West 365 420 34,000  Level Indianapolis Center
Wed 10:35:49 PM 38.7056 -81.8511 255° West 365 420 34,000  Level Indianapolis Center
Wed 10:36:50 PM 38.6803 -81.9761 256° West 365 420 34,000  Level Indianapolis Center
Wed 10:37:51 PM 38.6494 -82.1233 255° West 360 414 34,000  Level Indianapolis Center
Wed 10:38:52 PM 38.6239 -82.2467 255° West 360 414 34,000  Level Indianapolis Center
Wed 10:39:53 PM 38.5986 -82.3694 255° West 359 413 34,000  Level Indianapolis Center
Wed 10:40:55 PM 38.5728 -82.4933 255° West 359 413 34,000  Level Indianapolis Center
Wed 10:41:56 PM 38.5469 -82.6144 255° West 359 413 34,000  Level Indianapolis Center
Wed 10:42:57 PM 38.5211 -82.7364 255° West 359 413 34,000  Level Indianapolis Center
Wed 10:43:58 PM 38.4944 -82.8603 255° West 359 413 34,000  Level Indianapolis Center
Wed 10:44:59 PM 38.4681 -82.9836 255° West 360 414 34,000  Level Indianapolis Center
Wed 10:46:01 PM 38.4372 -83.1275 255° West 360 414 34,000  Level Indianapolis Center
Wed 10:47:02 PM 38.4097 -83.2497 254° West 360 414 34,000  Level Indianapolis Center
Wed 10:48:03 PM 38.3831 -83.3731 255° West 360 414 34,000  Level Indianapolis Center
Wed 10:49:05 PM 38.3558 -83.4958 254° West 360 414 34,000  Level Indianapolis Center
Wed 10:50:06 PM 38.3283 -83.6200 254° West 360 414 34,000  Level Indianapolis Center
Wed 10:51:07 PM 38.3017 -83.7411 254° West 360 414 34,000  Level Indianapolis Center
Wed 10:52:08 PM 38.2739 -83.8653 254° West 360 414 34,000  Level Indianapolis Center
Wed 10:53:10 PM 38.2458 -83.9892 254° West 361 415 34,000  Level Indianapolis Center
Wed 10:54:11 PM 38.2136 -84.1325 254° West 361 415 34,000  Level Indianapolis Center
Wed 10:55:12 PM 38.1853 -84.2553 254° West 361 415 34,000  Level Indianapolis Center
Wed 10:56:14 PM 38.1578 -84.3775 254° West 361 415 34,000  Level Indianapolis Center
Wed 10:57:15 PM 38.1286 -84.5014 253° West 362 417 34,000  Level Indianapolis Center
Wed 10:58:16 PM 38.0989 -84.6269 253° West 367 422 34,000  Level Indianapolis Center
Wed 10:59:17 PM 38.0692 -84.7511 253° West 368 423 34,000  Level Indianapolis Center
Wed 11:00:19 PM 38.0406 -84.8753 254° West 368 423 34,000  Level Indianapolis Center
Wed 11:01:20 PM 38.0128 -84.9992 254° West 367 422 34,000  Level Indianapolis Center
Wed 11:02:21 PM 37.9817 -85.1250 253° West 368 423 34,000  Level Indianapolis Center
Wed 11:03:23 PM 37.9522 -85.2497 253° West 369 425 34,000  Level Indianapolis Center
Wed 11:04:24 PM 37.9225 -85.3744 253° West 369 425 34,000  Level Indianapolis Center
Wed 11:05:25 PM 37.8967 -85.4986 255° West 368 423 34,000  Level Indianapolis Center
Wed 11:06:27 PM 37.8589 -85.6486 252° West 368 423 34,000  Level Indianapolis Center
Wed 11:07:28 PM 37.8289 -85.7739 253° West 368 423 34,000  Level Indianapolis Center
Wed 11:08:29 PM 37.7972 -85.9017 253° West 372 428 34,000  Level Indianapolis Center
Wed 11:09:31 PM 37.7664 -86.0275 253° West 373 429 34,000  Level Indianapolis Center
Wed 11:10:32 PM 37.7358 -86.1539 253° West 373 429 34,000  Level Indianapolis Center
Wed 11:11:33 PM 37.7064 -86.2731 253° West 374 430 34,000  Level Indianapolis Center
Wed 11:12:35 PM 37.6744 -86.3992 252° West 374 430 34,000  Level Indianapolis Center
Wed 11:13:36 PM 37.6411 -86.5353 253° West 374 430 34,000  Level Indianapolis Center
Wed 11:14:37 PM 37.6089 -86.6625 252° West 375 432 34,000  Level Indianapolis Center
Wed 11:15:39 PM 37.5767 -86.7911 252° West 377 434 34,000  Level Indianapolis Center
Wed 11:16:40 PM 37.5436 -86.9194 252° West 378 435 34,000  Level Indianapolis Center
Wed 11:17:41 PM 37.5131 -87.0381 252° West 378 435 34,000  Level Indianapolis Center
Wed 11:18:42 PM 37.4744 -87.1886 252° West 379 436 34,000  Level Indianapolis Center
Wed 11:19:44 PM 37.4419 -87.3178 252° West 382 440 34,000  Level Indianapolis Center
Wed 11:20:45 PM 37.4078 -87.4456 251° West 382 440 34,000  Level Indianapolis Center
Wed 11:21:46 PM 37.3744 -87.5742 252° West 382 440 34,000  Level Indianapolis Center
Wed 11:22:47 PM 37.3408 -87.7036 252° West 384 442 34,000  Level Indianapolis Center
Wed 11:23:42 PM 37.3092 -87.8228 252° West 384 442 34,000  Level Memphis Center
Wed 11:24:43 PM 37.2747 -87.9517 251° West 387 445 34,000  Level Memphis Center
Wed 11:25:44 PM 37.2381 -88.0917 252° West 387 445 34,000  Level Memphis Center
Wed 11:26:45 PM 37.2069 -88.2072 251° West 387 445 34,000 347 Level Memphis Center
Wed 11:27:45 PM 37.1725 -88.3350 251° West 387 445 34,700 694 Climbing Memphis Center
Wed 11:28:46 PM 37.1372 -88.4633 251° West 387 445 35,400 639 Climbing Memphis Center
Wed 11:29:47 PM 37.1028 -88.5919 251° West 388 447 36,000 295 Climbing Memphis Center
Wed 11:30:48 PM 37.0681 -88.7211 251° West 389 448 36,000  Level Memphis Center
Wed 11:31:49 PM 37.0256 -88.8739 251° West 389 448 36,000  Level Memphis Center
Wed 11:32:50 PM 36.9914 -88.9997 251° West 388 447 36,000  Level Memphis Center
Wed 11:33:51 PM 36.9561 -89.1278 251° West 388 447 36,000  Level Memphis Center
Wed 11:34:52 PM 36.9203 -89.2547 251° West 388 447 36,000  Level Memphis Center
Wed 11:35:53 PM 36.8850 -89.3831 251° West 390 449 36,000  Level Memphis Center
Wed 11:36:54 PM 36.8486 -89.5103 250° West 391 450 36,000  Level Memphis Center
Wed 11:37:55 PM 36.8131 -89.6361 251° West 390 449 36,000  Level Memphis Center
Wed 11:38:56 PM 36.7775 -89.7619 251° West 390 449 36,000  Level Memphis Center
Wed 11:39:56 PM 36.7414 -89.8894 251° West 390 449 36,000  Level Memphis Center
Wed 11:40:57 PM 36.7053 -90.0161 250° West 390 449 36,000  Level Memphis Center
Wed 11:41:58 PM 36.6686 -90.1439 250° West 390 449 36,000  Level Memphis Center
Wed 11:42:59 PM 36.6242 -90.2978 250° West 391 450 36,000  Level Memphis Center
Wed 11:44:00 PM 36.5858 -90.4267 250° West 392 451 36,000  Level Memphis Center
Wed 11:45:01 PM 36.5494 -90.5542 250° West 393 452 36,000  Level Memphis Center
Wed 11:46:02 PM 36.5114 -90.6828 250° West 393 452 36,000  Level Memphis Center
Wed 11:47:03 PM 36.4728 -90.8114 250° West 394 453 36,000  Level Memphis Center
Wed 11:48:04 PM 36.4339 -90.9397 249° West 394 453 36,000  Level Memphis Center
Wed 11:49:04 PM 36.3972 -91.0692 251° West 396 456 36,000  Level Memphis Center
Wed 11:50:05 PM 36.3583 -91.1978 249° West 396 456 36,000  Level Memphis Center
Wed 11:51:06 PM 36.3183 -91.3247 249° West 396 456 36,000  Level Memphis Center
Wed 11:52:07 PM 36.2814 -91.4550 251° West 397 457 36,000  Level Memphis Center
Wed 11:53:08 PM 36.2419 -91.5839 249° West 397 457 36,000  Level Memphis Center
Wed 11:54:09 PM 36.2031 -91.7128 250° West 398 458 36,000  Level Memphis Center
Wed 11:55:09 PM 36.1628 -91.8428 249° West 399 459 36,000  Level Memphis Center
Wed 11:56:10 PM 36.1242 -91.9725 250° West 400 460 36,000  Level Memphis Center
Wed 11:57:11 PM 36.0800 -92.1156 249° West 405 466 36,000  Level Memphis Center
Wed 11:58:12 PM 36.0400 -92.2453 249° West 407 468 36,000  Level Memphis Center
Wed 11:59:13 PM 35.9994 -92.3750 249° West 407 468 36,000  Level Memphis Center
Thu 12:00:14 AM 35.9586 -92.5033 249° West 407 468 36,000  Level Memphis Center
Thu 12:01:14 AM 35.9181 -92.6339 249° West 407 468 36,000  Level Memphis Center
Thu 12:02:15 AM 35.8769 -92.7631 249° West 407 468 36,000  Level Memphis Center
Thu 12:03:16 AM 35.8361 -92.8922 249° West 407 468 36,000  Level Memphis Center
Thu 12:04:17 AM 35.7861 -93.0489 249° West 407 468 36,000  Level Memphis Center
Thu 12:05:18 AM 35.7436 -93.1792 248° West 411 473 36,000  Level Memphis Center
Thu 12:06:18 AM 35.6619 -93.2781 225° Southwest 419 482 36,000  Level Memphis Center
Thu 12:07:19 AM 35.5692 -93.3781 221° Southwest 420 483 36,000  Level Memphis Center
Thu 12:08:20 AM 35.4861 -93.4639 220° Southwest 420 483 36,000  Level Memphis Center
Thu 12:09:21 AM 35.3972 -93.5583 221° Southwest 421 484 36,000  Level Memphis Center
Thu 12:10:21 AM 35.3061 -93.6531 220° Southwest 428 493 36,000  Level Memphis Center
Thu 12:11:22 AM 35.2047 -93.7592 221° Southwest 428 493 36,000  Level Memphis Center
Thu 12:12:23 AM 35.1122 -93.8561 221° Southwest 432 497 36,000  Level Memphis Center
Thu 12:13:24 AM 35.0292 -93.9439 221° Southwest 435 501 36,000  Level Memphis Center
Thu 12:14:25 AM 34.9369 -94.0378 220° Southwest 435 501 36,000  Level Memphis Center
Thu 12:15:25 AM 34.8283 -94.1528 221° Southwest 435 501 36,000  Level Memphis Center
Thu 12:16:26 AM 34.7331 -94.2481 219° Southwest 438 504 36,000  Level Memphis Center
Thu 12:17:27 AM 34.6392 -94.3475 221° Southwest 439 505 36,000  Level Memphis Center
Thu 12:18:12 AM 34.5839 -94.4050 221° Southwest 441 507 36,000  Level Fort Worth Center
Thu 12:19:13 AM 34.4717 -94.5189 220° Southwest 441 507 36,000  Level Fort Worth Center
Thu 12:20:14 AM 34.3797 -94.6139 220° Southwest 439 505 36,000  Level Fort Worth Center
Thu 12:21:14 AM 34.2875 -94.7083 220° Southwest 439 505 36,000  Level Fort Worth Center
Thu 12:22:15 AM 34.1944 -94.8011 220° Southwest 438 504 36,000  Level Fort Worth Center
Thu 12:23:16 AM 34.1017 -94.8969 221° Southwest 438 504 36,000  Level Fort Worth Center
Thu 12:24:16 AM 34.0097 -94.9875 219° Southwest 432 497 36,000  Level Fort Worth Center
Thu 12:25:17 AM 33.9169 -95.0806 220° Southwest 436 502 36,000  Level Fort Worth Center
Thu 12:26:17 AM 33.8231 -95.1758 220° Southwest 441 507 36,000  Level Fort Worth Center
Thu 12:27:18 AM 33.7289 -95.2689 219° Southwest 440 506 36,000  Level Fort Worth Center
Thu 12:28:19 AM 33.6356 -95.3617 220° Southwest 439 505 36,000  Level Fort Worth Center
Thu 12:29:19 AM 33.5417 -95.4547 220° Southwest 439 505 36,000  Level Fort Worth Center
Thu 12:30:20 AM 33.4478 -95.5481 220° Southwest 439 505 36,000  Level Fort Worth Center
Thu 12:31:21 AM 33.3461 -95.6494 220° Southwest 436 502 36,000  Level Fort Worth Center
Thu 12:32:21 AM 33.2531 -95.7417 220° Southwest 436 502 36,000 -50 Level Fort Worth Center
Thu 12:33:22 AM 33.1578 -95.8342 219° Southwest 438 504 35,900  Descending Fort Worth Center
Thu 12:34:22 AM 33.0633 -95.9272 220° Southwest 439 505 36,000 50 Climbing Fort Worth Center
Thu 12:35:23 AM 32.9678 -96.0206 219° Southwest 442 509 36,000  Level Fort Worth Center
Thu 12:36:24 AM 32.8725 -96.1136 219° Southwest 443 510 36,000 -50 Level Fort Worth Center
Thu 12:37:24 AM 32.7764 -96.2064 219° Southwest 443 510 35,900  Descending Fort Worth Center
Thu 12:38:25 AM 32.6800 -96.2994 219° Southwest 445 512 36,000 50 Climbing Fort Worth Center
Thu 12:39:25 AM 32.5828 -96.3936 219° Southwest 446 513 36,000  Level Fort Worth Center
Thu 12:40:26 AM 32.4750 -96.4739 212° Southwest 462 532 36,000  Level Fort Worth Center
Thu 12:41:26 AM 32.3581 -96.5372 205° Southwest 459 528 36,000 -248 Level Fort Worth Center
Thu 12:42:27 AM 32.2403 -96.6011 205° Southwest 462 532 35,500 -738 Descending Fort Worth Center
Thu 12:43:28 AM 32.1236 -96.6631 204° Southwest 461 531 34,500 -992 Descending Fort Worth Center
Thu 12:44:28 AM 32.0047 -96.7253 204° Southwest 463 533 33,500 -942 Descending Fort Worth Center
Thu 12:45:29 AM 31.8853 -96.7897 205° Southwest 464 534 32,600 -1,041 Descending Fort Worth Center
Thu 12:46:29 AM 31.7678 -96.8525 204° Southwest 462 532 31,400 -1,686 Descending Fort Worth Center
Thu 12:47:30 AM 31.6478 -96.9158 204° Southwest 463 533 29,200 -2,182 Descending Fort Worth Center
Thu 12:48:30 AM 31.5275 -96.9792 204° Southwest 458 527 27,000 -2,200 Descending Fort Worth Center
Thu 12:49:30 AM 31.4164 -97.0367 204° Southwest 450 518 24,800 -2,182 Descending Fort Worth Center
Thu 12:50:31 AM 31.3056 -97.0950 204° Southwest 436 502 22,600 -2,132 Descending Fort Worth Center
Thu 12:51:31 AM 31.1958 -97.1522 204° Southwest 431 496 20,500 -2,132 Descending Fort Worth Center
Thu 12:52:32 AM 31.0875 -97.2086 204° Southwest 425 489 18,300 -2,182 Descending Fort Worth Center
Thu 12:53:32 AM 30.9706 -97.2706 204° Southwest 414 476 16,100 -2,033 Descending Fort Worth Center
Thu 12:54:33 AM 30.8694 -97.3214 203° Southwest 403 464 14,200 -1,587 Descending Fort Worth Center
Thu 12:55:33 AM 30.7750 -97.3686 203° Southwest 369 425 12,900 -1,339 Descending Fort Worth Center
Thu 12:56:34 AM 30.6828 -97.3783 185° South 333 383 11,500 -1,736 Descending Fort Worth Center
Thu 12:57:34 AM 30.5986 -97.3931 189° South 317 365 9,400 -1,800 Descending Fort Worth Center
Thu 12:58:34 AM 30.5139 -97.4089 189° South 308 354 7,900 -1,488 Descending Fort Worth Center
Thu 12:59:35 AM 30.4333 -97.4275 191° South 299 344 6,400 -1,438 Descending Fort Worth Center
Thu 01:00:35 AM 30.3536 -97.4489 193° South 295 339 5,000 -1,091 Descending Fort Worth Center
Thu 01:01:36 AM 30.2797 -97.4675 192° South 283 326 4,200 -992 Descending Fort Worth Center
Thu 01:02:36 AM 30.2106 -97.4836 191° South 264 304 3,000 -600 Descending Fort Worth Center
Thu 01:03:36 AM 30.1569 -97.4997 195° South 250 288 3,000 -248 Level Fort Worth Center
Thu 01:04:37 AM 30.0969 -97.5164 194° South 231 266 2,500 -248 Descending Fort Worth Center
Thu 01:05:37 AM 30.0419 -97.5353 197° South 215 247 2,500  Level Fort Worth Center
Thu 01:06:37 AM 30.0244 -97.5914 250° West 194 223 2,500  Level Fort Worth Center
Thu 01:07:38 AM 30.0336 -97.6392 283° West 188 216 2,500  Level Fort Worth Center
Thu 01:08:42 AM 30.0819 -97.6550 344° North 160 184 2,500 -384 Level Houston Center
Thu 01:09:43 AM 30.1181 -97.6556 359° North 140 161 1,700 -645 Descending Houston Center
Thu 01:10:43 AM 30.1533 -97.6567 358° North 135 155 1,200 -500 Descending Houston Center

Login

Don't have an account? Register now (free) for customized features, flight alerts, and more!